Time;durP1;ratioP1;P1;durP2;ratioP2;P2;SDS_P1;SDS_P2;PMS_P1;PMS_P2;Temp;Humidity;BMP_temperature;BMP_pressure;BME280_temperature;BME280_humidity;BME280_pressure;Samples;Min_cycle;Max_cycle;Signal;HPM_P1;HPM_P2
2021/06/28 00:00:21;;;;;;;10.68;8.95;;;;;;;17.62;67.83;100156.88;4970300;28;106233;-66
2021/06/28 00:02:46;;;;;;;11.68;10.02;;;;;;;17.57;68.08;100158.34;4999223;28;107226;-62
2021/06/28 00:05:14;;;;;;;10.95;8.73;;;;;;;17.51;68.05;100158.38;4969349;28;105962;-65
2021/06/28 00:07:41;;;;;;;12.93;8.50;;;;;;;17.45;68.43;100154.69;4969327;28;106202;-63
2021/06/28 00:10:09;;;;;;;12.00;8.90;;;;;;;17.41;68.82;100158.88;4970594;28;106141;-64
2021/06/28 00:12:37;;;;;;;9.75;8.57;;;;;;;17.39;68.83;100152.88;4970137;28;106311;-64
2021/06/28 00:15:11;;;;;;;10.60;8.77;;;;;;;17.36;68.92;100156.00;4968515;28;106138;-62
2021/06/28 00:17:37;;;;;;;11.32;10.10;;;;;;;17.33;69.17;100159.13;4970192;28;105915;-62
2021/06/28 00:20:05;;;;;;;12.55;9.73;;;;;;;17.30;69.19;100159.56;4968789;28;106157;-62
2021/06/28 00:22:30;;;;;;;11.93;9.18;;;;;;;17.27;69.29;100154.63;4969941;28;106774;-62
2021/06/28 00:24:55;;;;;;;11.63;9.18;;;;;;;17.20;69.52;100155.47;4969972;28;105900;-64
2021/06/28 00:27:23;;;;;;;12.68;9.75;;;;;;;17.19;69.62;100155.69;4971071;28;105720;-63
2021/06/28 00:29:50;;;;;;;12.52;7.88;;;;;;;17.17;69.77;100158.59;4970279;28;106176;-63
2021/06/28 00:32:15;;;;;;;9.85;8.80;;;;;;;17.14;69.73;100156.34;4970213;28;106042;-63
2021/06/28 00:34:40;;;;;;;10.77;9.02;;;;;;;17.12;69.94;100154.91;4969960;28;106495;-63
2021/06/28 00:37:06;;;;;;;11.02;9.15;;;;;;;17.08;70.19;100160.69;4970896;28;105854;-64
2021/06/28 00:39:31;;;;;;;14.30;10.32;;;;;;;17.03;70.42;100163.22;4970045;28;106296;-63
2021/06/28 00:41:56;;;;;;;11.43;8.90;;;;;;;16.99;70.19;100155.75;4969019;28;106697;-65
2021/06/28 00:44:22;;;;;;;13.95;9.55;;;;;;;16.95;70.46;100159.91;4969783;28;106268;-63
2021/06/28 00:46:47;;;;;;;9.80;8.77;;;;;;;16.91;70.40;100159.53;4967417;28;105833;-63
2021/06/28 00:49:12;;;;;;;13.07;9.73;;;;;;;16.86;70.77;100168.19;4969645;28;106345;-61
2021/06/28 00:51:38;;;;;;;13.00;10.20;;;;;;;16.84;70.77;100172.97;4969738;28;105998;-62
2021/06/28 00:54:03;;;;;;;12.30;10.25;;;;;;;16.83;71.23;100170.50;4968870;28;106029;-65
2021/06/28 00:56:29;;;;;;;12.63;9.88;;;;;;;16.83;70.97;100168.63;4968294;28;105895;-65
2021/06/28 00:58:55;;;;;;;12.15;9.65;;;;;;;16.79;71.36;100164.72;4968861;28;106341;-65
2021/06/28 01:01:21;;;;;;;12.18;10.10;;;;;;;16.80;71.29;100173.59;4969463;28;107383;-64
2021/06/28 01:03:46;;;;;;;10.30;9.25;;;;;;;16.77;71.55;100171.34;4969099;28;106263;-65
2021/06/28 01:06:14;;;;;;;13.23;10.35;;;;;;;16.75;71.39;100171.56;4970521;28;105818;-65
2021/06/28 01:08:39;;;;;;;11.90;9.52;;;;;;;16.73;71.50;100168.22;4969043;28;106397;-65
2021/06/28 01:11:05;;;;;;;16.40;10.75;;;;;;;16.72;71.87;100170.09;4969414;28;105926;-64
2021/06/28 01:13:32;;;;;;;11.80;10.30;;;;;;;16.72;71.90;100167.41;4966912;28;105899;-64
2021/06/28 01:15:59;;;;;;;10.52;9.10;;;;;;;16.70;72.13;100169.50;4969417;28;106358;-66
2021/06/28 01:18:25;;;;;;;11.75;10.52;;;;;;;16.68;71.84;100168.88;4969264;28;106205;-62
2021/06/28 01:20:50;;;;;;;13.25;10.85;;;;;;;16.66;71.95;100164.75;4968680;28;107239;-61
2021/06/28 01:23:17;;;;;;;19.25;10.20;;;;;;;16.64;72.08;100166.84;4968464;28;106019;-62
2021/06/28 01:25:44;;;;;;;13.23;10.05;;;;;;;16.62;72.22;100171.56;4969500;28;106198;-63
2021/06/28 01:28:11;;;;;;;15.98;11.52;;;;;;;16.58;72.24;100169.31;4968832;28;106267;-64
2021/06/28 01:30:36;;;;;;;17.10;11.27;;;;;;;16.54;72.30;100160.03;4967458;28;106125;-63
2021/06/28 01:33:02;;;;;;;14.63;11.40;;;;;;;16.51;72.34;100160.44;4968214;28;106056;-64
2021/06/28 01:35:27;;;;;;;15.23;11.27;;;;;;;16.49;72.71;100162.50;4969311;28;105967;-65
2021/06/28 01:37:53;;;;;;;13.88;10.45;;;;;;;16.45;72.82;100163.16;4968665;28;106411;-64
2021/06/28 01:40:18;;;;;;;13.75;11.50;;;;;;;16.42;72.84;100157.13;4968359;28;106339;-65
2021/06/28 01:42:45;;;;;;;13.35;11.05;;;;;;;16.42;72.85;100159.00;4968156;28;106516;-64
2021/06/28 01:45:14;;;;;;;18.08;12.52;;;;;;;16.43;73.31;100152.59;4969151;28;106300;-64
2021/06/28 01:47:41;;;;;;;15.18;11.93;;;;;;;16.41;73.34;100154.66;4968624;28;106140;-68
2021/06/28 01:50:10;;;;;;;15.18;11.95;;;;;;;16.40;73.02;100155.69;4968173;28;107152;-71
2021/06/28 01:52:35;;;;;;;14.55;12.13;;;;;;;16.37;73.44;100158.81;4967729;28;105848;-72
2021/06/28 01:55:07;;;;;;;14.00;12.50;;;;;;;16.35;73.51;100156.34;4968758;28;106011;-68
2021/06/28 01:57:33;;;;;;;19.15;14.35;;;;;;;16.34;73.36;100153.84;4967939;28;106257;-73
2021/06/28 02:00:00;;;;;;;12.77;11.57;;;;;;;16.31;73.67;100148.91;4968150;28;105897;-71
2021/06/28 02:02:26;;;;;;;13.88;12.35;;;;;;;16.30;73.85;100152.63;4968096;28;106264;-68
2021/06/28 02:04:51;;;;;;;14.27;11.70;;;;;;;16.29;73.77;100150.97;4968878;28;106586;-68
2021/06/28 02:07:17;;;;;;;16.73;11.85;;;;;;;16.26;73.50;100148.69;4968350;28;106219;-71
2021/06/28 02:09:42;;;;;;;13.52;11.65;;;;;;;16.22;73.61;100154.50;4966531;28;107575;-66
2021/06/28 02:12:08;;;;;;;11.65;10.25;;;;;;;16.20;73.88;100153.88;4968143;28;105872;-61
2021/06/28 02:14:34;;;;;;;14.35;11.23;;;;;;;16.17;73.76;100148.91;4968879;28;106055;-65
2021/06/28 02:16:59;;;;;;;13.50;12.10;;;;;;;16.16;73.89;100149.94;4968108;28;106104;-64
2021/06/28 02:19:25;;;;;;;15.13;12.65;;;;;;;16.14;74.20;100149.31;4968043;28;106036;-64
2021/06/28 02:21:51;;;;;;;14.50;13.00;;;;;;;16.11;73.88;100152.41;4967709;28;106144;-64
2021/06/28 02:24:17;;;;;;;15.60;12.98;;;;;;;16.09;74.29;100151.81;4967974;28;106159;-64
2021/06/28 02:26:43;;;;;;;15.73;12.85;;;;;;;16.06;74.15;100150.38;4968297;28;105927;-66
2021/06/28 02:29:09;;;;;;;18.65;13.25;;;;;;;16.03;74.13;100152.63;4967746;28;105903;-64
2021/06/28 02:31:34;;;;;;;20.58;12.07;;;;;;;16.01;74.18;100150.16;4967964;28;105867;-65
2021/06/28 02:34:00;;;;;;;19.38;11.98;;;;;;;16.01;74.54;100146.66;4968765;28;106057;-64
2021/06/28 02:36:27;;;;;;;17.02;12.40;;;;;;;15.99;74.54;100156.75;4968081;28;105696;-64
2021/06/28 02:38:53;;;;;;;16.52;11.95;;;;;;;15.96;74.65;100149.94;4967876;28;105929;-64
2021/06/28 02:41:20;;;;;;;14.80;12.40;;;;;;;15.95;74.44;100145.63;4967579;28;106020;-64
2021/06/28 02:43:47;;;;;;;16.08;11.57;;;;;;;15.91;74.88;100139.00;4969515;28;105843;-64
2021/06/28 02:46:13;;;;;;;15.73;12.38;;;;;;;15.92;74.45;100139.81;4971384;28;106240;-65
2021/06/28 02:48:39;;;;;;;15.45;11.95;;;;;;;15.92;74.74;100134.44;4970969;28;106553;-64
2021/06/28 02:51:07;;;;;;;15.38;12.07;;;;;;;15.92;74.75;100139.81;4969582;28;106108;-64
2021/06/28 02:53:33;;;;;;;15.93;12.40;;;;;;;15.92;74.99;100140.63;4971675;28;105800;-65
2021/06/28 02:56:14;;;;;;;13.40;11.88;;;;;;;15.93;74.76;100133.44;4971129;28;106174;-65
2021/06/28 02:58:51;;;;;;;16.50;11.93;;;;;;;15.94;74.87;100137.75;4970643;28;106066;-65
2021/06/28 03:01:19;;;;;;;16.75;12.02;;;;;;;15.96;74.95;100131.13;4970789;28;106133;-65
2021/06/28 03:03:45;;;;;;;13.25;11.10;;;;;;;15.99;75.00;100130.75;4971260;28;107172;-64
2021/06/28 03:06:10;;;;;;;16.23;11.60;;;;;;;16.02;74.96;100130.31;4968885;28;106321;-64
2021/06/28 03:08:36;;;;;;;13.80;11.77;;;;;;;16.04;74.96;100133.59;4970118;28;106193;-64
2021/06/28 03:11:02;;;;;;;16.38;11.85;;;;;;;16.07;74.73;100132.38;4970237;28;105896;-64
2021/06/28 03:13:28;;;;;;;12.75;11.15;;;;;;;16.08;74.95;100134.03;4970772;28;105998;-66
2021/06/28 03:15:54;;;;;;;12.93;10.98;;;;;;;16.10;74.87;100131.13;4970506;28;105868;-65
2021/06/28 03:18:20;;;;;;;17.73;11.18;;;;;;;16.08;74.91;100131.34;4970087;28;106021;-67
2021/06/28 03:20:45;;;;;;;15.02;12.25;;;;;;;16.07;74.42;100133.22;4970678;28;106438;-64
2021/06/28 03:23:11;;;;;;;17.58;11.93;;;;;;;16.06;74.74;100133.41;4971523;28;105903;-64
2021/06/28 03:25:37;;;;;;;14.00;10.52;;;;;;;16.05;74.78;100137.13;4970762;28;106182;-65
2021/06/28 03:28:02;;;;;;;13.40;11.57;;;;;;;16.05;74.52;100135.28;4969021;28;106933;-64
2021/06/28 03:30:28;;;;;;;14.45;12.10;;;;;;;16.05;74.58;100137.13;4970497;28;105847;-64
2021/06/28 03:32:53;;;;;;;14.02;12.60;;;;;;;16.05;74.46;100140.66;4971116;28;105756;-64
2021/06/28 03:35:18;;;;;;;14.15;11.65;;;;;;;16.04;74.57;100141.66;4970647;28;106192;-64
2021/06/28 03:37:44;;;;;;;16.42;11.70;;;;;;;16.04;74.68;100144.34;4970392;28;106000;-64
2021/06/28 03:40:12;;;;;;;16.02;12.18;;;;;;;16.03;74.63;100141.88;4970044;28;106398;-62
2021/06/28 03:42:38;;;;;;;14.77;11.35;;;;;;;16.02;74.45;100149.13;4970196;28;106030;-62
2021/06/28 03:45:09;;;;;;;17.00;11.20;;;;;;;16.01;74.63;100141.28;4970153;28;106227;-61
2021/06/28 03:47:35;;;;;;;22.40;13.25;;;;;;;16.03;74.77;100152.63;4970062;28;105963;-63
2021/06/28 03:50:00;;;;;;;18.85;12.25;;;;;;;16.01;74.88;100146.66;4970024;28;106002;-65
2021/06/28 03:52:26;;;;;;;16.58;12.45;;;;;;;16.02;74.50;100157.19;4970903;28;106182;-63
2021/06/28 03:54:51;;;;;;;14.27;11.60;;;;;;;16.02;74.64;100151.81;4970329;28;106142;-62
2021/06/28 03:57:17;;;;;;;14.07;11.27;;;;;;;16.02;74.71;100159.03;4969384;28;106161;-64
2021/06/28 03:59:42;;;;;;;16.42;11.60;;;;;;;16.02;74.46;100161.72;4970018;28;105979;-65
2021/06/28 04:02:07;;;;;;;15.18;13.05;;;;;;;16.03;74.39;100158.00;4970862;28;105915;-64
2021/06/28 04:04:33;;;;;;;18.50;11.93;;;;;;;16.04;74.54;100165.03;4970017;28;106259;-64
2021/06/28 04:06:58;;;;;;;13.30;11.27;;;;;;;16.05;74.46;100164.81;4969594;28;106362;-64
2021/06/28 04:09:23;;;;;;;12.95;11.43;;;;;;;16.08;74.48;100169.78;4969647;28;105934;-64
2021/06/28 04:11:49;;;;;;;14.90;12.07;;;;;;;16.13;74.67;100174.56;4970072;28;106074;-64
2021/06/28 04:14:14;;;;;;;13.57;12.20;;;;;;;16.18;74.28;100179.28;4969670;28;106180;-64
2021/06/28 04:16:40;;;;;;;13.43;11.95;;;;;;;16.23;74.42;100174.94;4967611;28;105954;-64
2021/06/28 04:19:05;;;;;;;11.85;10.38;;;;;;;16.27;74.26;100175.38;4969234;28;106293;-64
2021/06/28 04:21:34;;;;;;;19.65;12.70;;;;;;;16.28;74.34;100177.03;4969920;28;105941;-64
2021/06/28 04:24:04;;;;;;;18.88;11.65;;;;;;;16.31;74.35;100175.78;4969629;28;105968;-64
2021/06/28 04:26:31;;;;;;;18.48;12.45;;;;;;;16.35;73.97;100175.16;4968070;28;106840;-64
2021/06/28 04:28:57;;;;;;;14.48;11.27;;;;;;;16.39;74.07;100172.88;4969504;28;105829;-64
2021/06/28 04:31:23;;;;;;;14.68;12.20;;;;;;;16.43;73.95;100174.13;4969887;28;105970;-65
2021/06/28 04:33:48;;;;;;;24.00;12.00;;;;;;;16.48;73.91;100168.09;4969565;28;106145;-65
2021/06/28 04:36:13;;;;;;;20.63;12.50;;;;;;;16.53;74.11;100174.50;4969318;28;106731;-65
2021/06/28 04:38:39;;;;;;;13.55;11.80;;;;;;;16.62;74.02;100168.88;4969089;28;106392;-64
2021/06/28 04:41:04;;;;;;;14.68;11.55;;;;;;;16.71;73.94;100168.44;4969897;28;105975;-64
2021/06/28 04:43:30;;;;;;;17.73;11.82;;;;;;;16.79;73.81;100166.59;4969345;28;106705;-65
2021/06/28 04:45:55;;;;;;;16.88;11.60;;;;;;;16.84;73.67;100169.44;4969225;28;106041;-65
2021/06/28 04:48:20;;;;;;;13.25;11.25;;;;;;;16.91;73.55;100165.72;4968754;28;106052;-64
2021/06/28 04:50:46;;;;;;;14.38;11.80;;;;;;;16.94;73.21;100171.75;4969892;28;106617;-62
2021/06/28 04:53:12;;;;;;;15.57;12.35;;;;;;;16.96;73.32;100175.03;4969080;28;105924;-62
2021/06/28 04:55:37;;;;;;;14.85;11.98;;;;;;;17.01;73.49;100167.97;4968861;28;107941;-62
2021/06/28 04:58:02;;;;;;;17.63;12.18;;;;;;;17.08;73.27;100166.06;4968520;28;105924;-64
2021/06/28 05:00:28;;;;;;;15.25;12.30;;;;;;;17.12;73.31;100163.78;4969917;28;105910;-65
2021/06/28 05:02:53;;;;;;;13.73;12.18;;;;;;;17.21;73.33;100165.19;4969053;28;106236;-67
2021/06/28 05:05:19;;;;;;;16.45;12.85;;;;;;;17.33;73.36;100168.03;4968784;28;106812;-66
2021/06/28 05:07:45;;;;;;;19.83;13.57;;;;;;;17.52;73.10;100170.81;4968023;28;105951;-63
2021/06/28 05:10:13;;;;;;;19.95;13.75;;;;;;;17.66;72.81;100174.25;4967617;28;106060;-64
2021/06/28 05:12:38;;;;;;;17.48;13.70;;;;;;;17.78;72.90;100175.19;4968718;28;106352;-63
2021/06/28 05:15:06;;;;;;;17.90;13.98;;;;;;;17.94;72.97;100171.19;4968092;28;105972;-68
2021/06/28 05:17:31;;;;;;;16.05;14.18;;;;;;;18.10;72.72;100165.25;4967822;28;106693;-66
2021/06/28 05:19:56;;;;;;;20.35;14.02;;;;;;;18.20;72.22;100172.03;4968318;28;106131;-67
2021/06/28 05:22:22;;;;;;;18.80;13.98;;;;;;;18.24;72.13;100163.25;4967936;28;105938;-68
2021/06/28 05:24:48;;;;;;;15.10;12.88;;;;;;;18.35;72.01;100164.41;4968023;28;105978;-68
2021/06/28 05:27:13;;;;;;;16.00;12.63;;;;;;;18.47;71.82;100167.19;4967868;28;106353;-68
2021/06/28 05:29:38;;;;;;;30.60;14.30;;;;;;;18.64;71.72;100177.41;4968915;28;105978;-65
2021/06/28 05:32:04;;;;;;;21.33;13.45;;;;;;;18.75;71.34;100173.94;4965770;28;106433;-63
2021/06/28 05:34:29;;;;;;;15.52;12.95;;;;;;;18.84;71.16;100171.78;4968150;28;105903;-67
2021/06/28 05:36:55;;;;;;;17.98;13.27;;;;;;;18.95;71.07;100171.06;4967819;28;105984;-63
2021/06/28 05:39:20;;;;;;;15.05;11.95;;;;;;;19.03;70.86;100169.94;4969002;28;106008;-66
2021/06/28 05:41:46;;;;;;;15.82;12.90;;;;;;;19.14;70.75;100166.47;4967905;28;106139;-65
2021/06/28 05:44:11;;;;;;;17.80;12.13;;;;;;;19.30;70.53;100174.97;4963166;28;106445;-64
2021/06/28 05:46:36;;;;;;;18.15;12.35;;;;;;;19.39;69.85;100166.31;4965388;28;106535;-62
2021/06/28 05:49:02;;;;;;;19.40;12.80;;;;;;;19.56;69.70;100169.22;4966154;28;107066;-65
2021/06/28 05:51:27;;;;;;;15.55;12.95;;;;;;;19.70;68.97;100175.25;4965570;28;106264;-66
2021/06/28 05:53:53;;;;;;;15.88;11.95;;;;;;;19.80;68.75;100169.31;4965191;28;106600;-62
2021/06/28 05:56:18;;;;;;;17.60;12.23;;;;;;;19.97;68.32;100184.84;4965439;28;106285;-66
2021/06/28 05:58:43;;;;;;;16.58;11.10;;;;;;;20.01;67.40;100181.47;4967849;28;106006;-67
2021/06/28 06:01:09;;;;;;;14.60;11.48;;;;;;;20.17;67.98;100177.22;4968276;28;106157;-63
2021/06/28 06:03:35;;;;;;;14.10;11.85;;;;;;;20.41;67.63;100186.19;4967215;28;105934;-68
2021/06/28 06:06:00;;;;;;;19.60;12.02;;;;;;;20.61;66.94;100185.81;4967179;28;105890;-64
2021/06/28 06:08:26;;;;;;;16.65;12.93;;;;;;;20.70;66.02;100188.19;4967769;28;106065;-62
2021/06/28 06:10:53;;;;;;;14.93;12.05;;;;;;;20.78;65.90;100191.34;4968099;28;106170;-61
2021/06/28 06:13:19;;;;;;;16.13;12.30;;;;;;;20.90;65.57;100193.19;4967313;28;106024;-61
2021/06/28 06:15:45;;;;;;;17.95;12.02;;;;;;;21.09;65.66;100191.16;4967349;28;105858;-61
2021/06/28 06:18:10;;;;;;;12.93;10.95;;;;;;;21.28;65.19;100195.34;4968541;28;105791;-61
2021/06/28 06:20:36;;;;;;;15.50;12.93;;;;;;;21.46;64.74;100198.94;4971308;28;106675;-61
2021/06/28 06:23:01;;;;;;;15.27;11.45;;;;;;;21.62;64.42;100195.47;4970582;28;106031;-61
2021/06/28 06:25:27;;;;;;;16.58;12.23;;;;;;;21.78;63.84;100198.44;4970588;28;106167;-61
2021/06/28 06:27:52;;;;;;;15.02;11.93;;;;;;;21.86;63.45;100195.34;4971119;28;106047;-64
2021/06/28 06:30:18;;;;;;;14.98;11.95;;;;;;;21.97;63.09;100208.00;4970758;28;105991;-61
2021/06/28 06:32:44;;;;;;;19.02;12.00;;;;;;;22.11;62.49;100213.09;4970421;28;106310;-61
2021/06/28 06:35:09;;;;;;;16.55;12.73;;;;;;;22.03;61.61;100208.09;4970362;28;105987;-61
2021/06/28 06:37:35;;;;;;;24.70;12.07;;;;;;;22.00;62.18;100211.28;4971184;28;105836;-61
2021/06/28 06:40:00;;;;;;;13.77;11.70;;;;;;;22.08;62.21;100213.59;4970555;28;106117;-61
2021/06/28 06:42:26;;;;;;;14.82;12.32;;;;;;;22.23;61.98;100215.75;4937746;28;107653;-65
2021/06/28 06:44:51;;;;;;;14.95;12.20;;;;;;;22.31;61.83;100224.28;4918674;28;106472;-63
2021/06/28 06:47:16;;;;;;;21.52;13.43;;;;;;;22.40;61.19;100215.75;4916924;28;106010;-64
2021/06/28 06:49:42;;;;;;;12.82;10.75;;;;;;;22.60;61.21;100223.38;4911922;28;106226;-63
2021/06/28 06:52:09;;;;;;;14.23;11.20;;;;;;;22.86;60.93;100227.25;4912096;28;106745;-60
2021/06/28 06:54:34;;;;;;;14.20;11.02;;;;;;;23.08;60.37;100231.91;4911477;28;107010;-61
2021/06/28 06:57:00;;;;;;;18.00;11.52;;;;;;;23.24;59.51;100231.03;4911984;28;106410;-63
2021/06/28 06:59:26;;;;;;;18.73;12.57;;;;;;;23.22;59.10;100233.19;4911610;28;106151;-66
2021/06/28 07:01:51;;;;;;;14.68;11.15;;;;;;;23.32;59.21;100238.75;4912119;28;105970;-68
2021/06/28 07:04:18;;;;;;;13.80;11.23;;;;;;;23.45;58.88;100236.72;4912262;28;106064;-65
2021/06/28 07:06:43;;;;;;;16.88;11.10;;;;;;;23.57;59.07;100239.28;4912842;28;106116;-63
2021/06/28 07:09:08;;;;;;;14.73;10.35;;;;;;;23.78;58.47;100241.16;4912596;28;106185;-65
2021/06/28 07:11:34;;;;;;;14.07;9.40;;;;;;;24.08;58.24;100244.44;4911636;28;110361;-62
2021/06/28 07:13:59;;;;;;;11.85;10.43;;;;;;;24.39;57.58;100247.41;4911752;28;105849;-63
2021/06/28 07:16:34;;;;;;;15.80;9.93;;;;;;;24.72;57.01;100249.00;4912400;28;106325;-63
2021/06/28 07:19:03;;;;;;;14.13;10.00;;;;;;;25.18;56.18;100253.88;4912278;28;106222;-63
2021/06/28 07:21:28;;;;;;;15.73;8.90;;;;;;;25.56;55.06;100246.41;4911136;28;106098;-62
2021/06/28 07:23:55;;;;;;;12.85;8.90;;;;;;;25.94;53.96;100257.91;4911919;28;106613;-63
2021/06/28 07:26:24;;;;;;;14.32;8.80;;;;;;;26.09;52.77;100246.22;4912391;28;106083;-62
2021/06/28 07:28:49;;;;;;;13.57;9.90;;;;;;;26.14;51.54;100259.06;4911922;28;106256;-62
2021/06/28 07:31:15;;;;;;;10.23;8.02;;;;;;;26.21;51.69;100256.06;4911052;28;106775;-62
2021/06/28 07:33:41;;;;;;;11.00;8.77;;;;;;;26.47;50.81;100260.41;4911986;28;106261;-62
2021/06/28 07:36:08;;;;;;;11.15;8.73;;;;;;;26.60;50.17;100247.25;4911669;28;106037;-63
2021/06/28 07:38:34;;;;;;;10.20;7.88;;;;;;;26.73;49.66;100248.66;4912109;28;106316;-66
2021/06/28 07:40:59;;;;;;;11.18;8.20;;;;;;;26.87;49.02;100240.69;4911974;28;105899;-61
2021/06/28 07:43:25;;;;;;;10.40;8.15;;;;;;;26.95;48.17;100234.66;4911591;28;105994;-62
2021/06/28 07:45:50;;;;;;;12.60;8.25;;;;;;;27.03;47.60;100231.34;4912595;28;106225;-62
2021/06/28 07:48:17;;;;;;;9.88;6.97;;;;;;;27.18;47.20;100235.91;4911926;28;106141;-62
2021/06/28 07:50:46;;;;;;;10.55;7.88;;;;;;;27.44;46.28;100233.09;4911744;28;105766;-62
2021/06/28 07:53:11;;;;;;;13.88;8.52;;;;;;;27.64;45.70;100235.69;4910920;28;106042;-62
2021/06/28 07:55:37;;;;;;;10.85;7.38;;;;;;;27.82;45.06;100236.94;4912427;28;106219;-62
2021/06/28 07:58:04;;;;;;;8.82;7.05;;;;;;;28.08;44.83;100241.44;4910362;28;106397;-64
2021/06/28 08:00:29;;;;;;;10.85;8.43;;;;;;;28.23;43.70;100243.22;4911624;28;105933;-63
2021/06/28 08:02:55;;;;;;;10.85;7.70;;;;;;;28.25;42.97;100247.31;4910351;28;106148;-62
2021/06/28 08:05:20;;;;;;;9.55;7.35;;;;;;;28.35;43.28;100236.28;4912606;28;105965;-63
2021/06/28 08:07:45;;;;;;;9.48;6.97;;;;;;;28.35;42.68;100235.44;4911837;28;106612;-62
2021/06/28 08:10:12;;;;;;;14.52;7.68;;;;;;;28.40;42.44;100231.84;4911830;28;106051;-66
2021/06/28 08:12:48;;;;;;;13.35;6.90;;;;;;;28.59;42.59;100219.03;4911402;28;106103;-64
2021/06/28 08:15:17;;;;;;;10.50;6.70;;;;;;;28.74;42.01;100222.75;4897528;28;106130;-72
2021/06/28 08:17:43;;;;;;;11.07;7.38;;;;;;;28.74;41.71;100220.00;4911120;28;106500;-67
2021/06/28 08:20:09;;;;;;;11.52;7.28;;;;;;;28.97;41.36;100218.38;4911326;28;106712;-61
2021/06/28 08:22:36;;;;;;;9.02;7.22;;;;;;;28.87;40.80;100219.31;4911223;28;106164;-64
2021/06/28 08:25:02;;;;;;;12.77;8.07;;;;;;;28.75;40.79;100216.19;4911718;28;106528;-69
2021/06/28 08:27:27;;;;;;;9.82;6.50;;;;;;;28.66;40.46;100219.53;4911604;28;106248;-64
2021/06/28 08:29:52;;;;;;;13.55;7.57;;;;;;;28.75;40.64;100216.19;4910681;28;108052;-64
2021/06/28 08:32:18;;;;;;;9.43;7.40;;;;;;;28.82;40.54;100211.94;4909695;28;106309;-64
2021/06/28 08:34:44;;;;;;;10.57;7.18;;;;;;;28.87;40.48;100219.31;4911999;28;106022;-64
2021/06/28 08:37:09;;;;;;;7.95;6.28;;;;;;;28.95;39.54;100215.09;4911369;28;105928;-63
2021/06/28 08:39:35;;;;;;;6.90;6.20;;;;;;;29.29;39.37;100220.44;4910502;28;105869;-65
2021/06/28 08:42:05;;;;;;;9.77;7.03;;;;;;;29.62;38.27;100217.78;4909806;28;105995;-64
2021/06/28 08:44:31;;;;;;;8.95;6.07;;;;;;;29.85;37.43;100220.75;4911129;28;107152;-69
2021/06/28 08:46:57;;;;;;;9.73;6.38;;;;;;;29.58;36.40;100216.75;4910864;28;106089;-66
2021/06/28 08:49:23;;;;;;;7.10;5.65;;;;;;;29.57;36.51;100217.88;4910730;28;106065;-65
2021/06/28 08:51:49;;;;;;;8.95;5.85;;;;;;;29.71;36.72;100209.69;4910699;28;106099;-63
2021/06/28 08:54:15;;;;;;;11.93;6.43;;;;;;;29.92;35.97;100221.19;4911665;28;105981;-66
2021/06/28 08:56:45;;;;;;;8.68;6.00;;;;;;;29.88;35.31;100220.16;4909759;28;106525;-66
2021/06/28 08:59:11;;;;;;;8.65;5.88;;;;;;;29.81;35.24;100217.78;4910613;28;106025;-65
2021/06/28 09:01:37;;;;;;;8.63;5.38;;;;;;;30.08;35.20;100208.03;4910774;28;107036;-65
2021/06/28 09:04:04;;;;;;;5.82;4.82;;;;;;;30.44;34.25;100209.31;4911666;28;106486;-64
2021/06/28 09:06:30;;;;;;;6.80;4.63;;;;;;;30.65;33.81;100205.09;4910749;28;106208;-66
2021/06/28 09:08:58;;;;;;;11.13;4.80;;;;;;;31.28;32.69;100210.97;4910413;28;107922;-65
2021/06/28 09:11:25;;;;;;;5.75;4.57;;;;;;;31.85;31.42;100226.19;4910554;28;106606;-64
2021/06/28 09:13:55;;;;;;;6.43;4.55;;;;;;;32.32;30.39;100226.69;4911103;28;106473;-66
2021/06/28 09:16:26;;;;;;;5.50;4.90;;;;;;;32.70;29.63;100215.22;4910441;28;106025;-65
2021/06/28 09:18:53;;;;;;;6.25;4.63;;;;;;;32.95;28.98;100214.81;4910365;28;105875;-65
2021/06/28 09:21:31;;;;;;;6.15;4.63;;;;;;;32.79;29.00;100215.22;4910009;28;105927;-63
2021/06/28 09:23:59;;;;;;;6.60;4.50;;;;;;;32.69;28.87;100213.53;4911192;28;105968;-65
2021/06/28 09:26:29;;;;;;;5.57;4.43;;;;;;;32.58;28.58;100212.22;4910643;28;106136;-65
2021/06/28 09:28:57;;;;;;;9.15;5.22;;;;;;;32.54;28.95;100211.22;4910429;28;106419;-65
2021/06/28 09:31:54;;;;;;;5.53;4.22;;;;;;;32.39;28.14;100217.97;4910155;28;105990;-64
2021/06/28 09:34:21;;;;;;;5.38;4.25;;;;;;;32.20;28.71;100219.00;4899219;28;106220;-69
2021/06/28 09:36:47;;;;;;;4.35;3.95;;;;;;;32.35;28.25;100223.28;4910870;28;106238;-71
2021/06/28 09:39:29;;;;;;;4.72;3.95;;;;;;;32.20;27.78;100218.19;4910409;28;105880;-70
2021/06/28 09:41:59;;;;;;;6.28;3.80;;;;;;;32.15;27.93;100216.41;4910396;28;105960;-71
2021/06/28 09:44:28;;;;;;;5.20;3.60;;;;;;;32.04;27.71;100214.97;4910694;28;105917;-68
2021/06/28 09:47:09;;;;;;;5.38;3.63;;;;;;;31.90;27.86;100220.56;4910324;28;106273;-68
2021/06/28 09:49:35;;;;;;;5.30;3.70;;;;;;;32.21;27.22;100220.63;4891008;28;105790;-65
2021/06/28 09:52:01;;;;;;;4.60;4.10;;;;;;;32.19;27.11;100219.31;4890580;28;106469;-71
2021/06/28 09:54:26;;;;;;;5.25;4.10;;;;;;;31.82;27.87;100216.63;4891288;28;106133;-68
2021/06/28 09:56:53;;;;;;;4.40;4.00;;;;;;;31.56;28.26;100221.88;4890376;28;106272;-67
2021/06/28 09:59:35;;;;;;;6.80;3.88;;;;;;;31.76;28.14;100214.31;4890316;28;106480;-71
2021/06/28 10:02:20;;;;;;;5.97;3.60;;;;;;;31.88;27.75;100211.81;4889879;28;106355;-69
2021/06/28 10:07:28;;;;;;;5.65;2.88;;;;;;;31.34;27.37;100218.00;4891023;28;106140;-63
2021/06/28 10:10:17;;;;;;;5.47;3.03;;;;;;;31.82;26.78;100202.03;4890093;28;106080;-62
2021/06/28 10:12:51;;;;;;;;;;;;;;;32.25;26.37;100208.97;4891799;28;105998;-65
2021/06/28 10:15:19;;;;;;;3.80;2.83;;;;;;;32.40;26.11;100212.13;4910187;28;105915;-65
2021/06/28 10:17:45;;;;;;;4.05;2.90;;;;;;;32.57;25.58;100216.09;4908664;28;106125;-64
2021/06/28 10:20:15;;;;;;;3.28;2.42;;;;;;;32.37;25.06;100217.47;4909009;28;106332;-69
2021/06/28 10:22:43;;;;;;;3.58;2.20;;;;;;;32.64;24.77;100210.13;4909136;28;106585;-67
2021/06/28 10:25:10;;;;;;;3.85;2.35;;;;;;;33.28;24.36;100212.44;4909497;28;106062;-65
2021/06/28 10:27:36;;;;;;;3.45;2.65;;;;;;;33.47;23.30;100208.56;4921777;28;106274;-64
2021/06/28 10:30:08;;;;;;;4.75;2.88;;;;;;;33.29;23.39;100203.03;4908720;28;105908;-66
2021/06/28 10:32:35;;;;;;;4.20;3.03;;;;;;;33.07;23.85;100207.50;4908991;28;106114;-67
2021/06/28 10:35:02;;;;;;;5.07;2.90;;;;;;;32.83;23.95;100212.66;4909679;28;106448;-66
2021/06/28 10:37:37;;;;;;;4.63;3.15;;;;;;;32.45;24.10;100207.63;4908888;28;105898;-65
2021/06/28 10:40:09;;;;;;;4.85;3.20;;;;;;;32.35;24.78;100208.69;4907264;28;106005;-67
2021/06/28 10:42:40;;;;;;;3.55;2.97;;;;;;;32.08;24.59;100204.94;4904836;28;106322;-65
2021/06/28 10:45:08;;;;;;;6.40;3.28;;;;;;;31.75;25.21;100202.47;4908498;28;106826;-69
2021/06/28 10:47:34;;;;;;;5.88;2.90;;;;;;;31.82;25.18;100202.03;4908546;28;106241;-65
2021/06/28 10:50:00;;;;;;;4.50;3.05;;;;;;;31.92;24.88;100201.78;4908516;28;105951;-63
2021/06/28 10:52:34;;;;;;;4.25;3.15;;;;;;;31.93;24.72;100195.13;4908552;28;105988;-67
2021/06/28 10:55:18;;;;;;;4.70;3.85;;;;;;;31.99;24.77;100195.84;4898539;28;106662;-65
2021/06/28 10:57:44;;;;;;;4.28;3.88;;;;;;;32.02;25.48;100190.50;4909295;28;106232;-68
2021/06/28 11:00:10;;;;;;;5.22;3.65;;;;;;;32.11;25.42;100193.31;4909169;28;106461;-69
2021/06/28 11:02:40;;;;;;;4.45;3.50;;;;;;;32.12;25.69;100188.63;4909135;28;106140;-67
2021/06/28 11:05:10;;;;;;;4.70;4.20;;;;;;;31.87;25.96;100199.16;4911435;28;106076;-69
2021/06/28 11:07:47;;;;;;;5.78;4.35;;;;;;;31.48;26.28;100189.59;4912811;28;106135;-66